createdAt,value
2016-09-07T00:00:21.369Z,11.59
2016-09-07T00:01:20.598Z,11.8
2016-09-07T00:02:21.138Z,11.95
2016-09-07T00:03:21.667Z,11.88
2016-09-07T00:04:23.041Z,11.97
2016-09-07T00:05:22.500Z,11.94
2016-09-07T00:06:22.588Z,11.75
2016-09-07T00:07:21.750Z,11.8
2016-09-07T00:08:21.617Z,11.78
2016-09-07T00:09:22.453Z,11.78
2016-09-07T00:10:21.607Z,11.86
2016-09-07T00:11:22.382Z,11.99
2016-09-07T00:12:22.576Z,11.94
2016-09-07T00:13:21.262Z,11.91
2016-09-07T00:14:21.724Z,11.78
2016-09-07T00:15:21.218Z,11.66
2016-09-07T00:16:22.215Z,11.47
2016-09-07T00:17:24.544Z,11.37
2016-09-07T00:18:22.535Z,11.19
2016-09-07T00:19:21.967Z,11.18
2016-09-07T00:20:20.305Z,11.11
2016-09-07T00:21:23.879Z,11.22
2016-09-07T00:22:22.426Z,11.19
2016-09-07T00:23:22.600Z,11.27
2016-09-07T00:24:22.189Z,11.19
2016-09-07T00:25:22.986Z,11.22
2016-09-07T00:26:20.968Z,11.23
2016-09-07T00:27:22.495Z,11.32
2016-09-07T00:28:22.083Z,11.37
2016-09-07T00:29:24.013Z,11.27
2016-09-07T00:30:21.727Z,11.43
2016-09-07T00:31:21.964Z,11.47
2016-09-07T00:32:22.356Z,11.57
2016-09-07T00:33:21.952Z,11.73
2016-09-07T00:34:22.227Z,11.62
2016-09-07T00:35:22.218Z,11.62
2016-09-07T00:36:22.375Z,11.63
2016-09-07T00:37:22.801Z,11.45
2016-09-07T00:38:22.277Z,11.35
2016-09-07T00:39:22.681Z,11.37
2016-09-07T00:40:22.593Z,11.55
2016-09-07T00:41:22.532Z,11.66
2016-09-07T00:42:22.953Z,11.68
2016-09-07T00:43:23.534Z,11.63
2016-09-07T00:44:23.398Z,11.6
2016-09-07T00:45:22.721Z,11.73
2016-09-07T00:46:22.678Z,11.75
2016-09-07T00:47:22.931Z,11.75
2016-09-07T00:48:23.260Z,11.8
2016-09-07T00:49:22.902Z,11.8
2016-09-07T00:50:22.227Z,11.86
2016-09-07T00:51:23.274Z,11.4
2016-09-07T00:52:22.825Z,11.29
2016-09-07T00:53:21.847Z,11.32
2016-09-07T00:54:22.506Z,11.25
2016-09-07T00:55:22.518Z,11.19
2016-09-07T00:56:22.624Z,11.23
2016-09-07T00:57:22.252Z,11.52
2016-09-07T00:58:21.905Z,11.43
2016-09-07T00:59:24.354Z,11.3
2016-09-07T01:00:22.973Z,11.44
2016-09-07T01:01:22.689Z,11.57
2016-09-07T01:02:22.346Z,11.6
2016-09-07T01:03:22.616Z,11.52
2016-09-07T01:04:24.418Z,11.69
2016-09-07T01:05:23.582Z,11.7
2016-09-07T01:06:22.475Z,11.69
2016-09-07T01:07:22.977Z,11.72
2016-09-07T01:08:23.504Z,11.75
2016-09-07T01:09:22.405Z,11.47
2016-09-07T01:10:23.009Z,11.19
2016-09-07T01:11:26.088Z,11.3
2016-09-07T01:12:24.211Z,11.43
2016-09-07T01:13:23.517Z,11.43
2016-09-07T01:14:22.707Z,11.4
2016-09-07T01:15:24.281Z,11.44
2016-09-07T01:16:22.661Z,11.5
2016-09-07T01:17:23.987Z,11.5
2016-09-07T01:18:22.872Z,11.47
2016-09-07T01:19:22.852Z,11.45
2016-09-07T01:20:24.903Z,11.62
2016-09-07T01:21:24.564Z,11.57
2016-09-07T01:22:24.841Z,11.73
2016-09-07T01:23:23.580Z,11.66
2016-09-07T01:24:22.727Z,11.59
2016-09-07T01:25:22.888Z,11.43
2016-09-07T01:26:23.310Z,11.26
2016-09-07T01:27:23.179Z,11.37
2016-09-07T01:28:24.158Z,11.47
2016-09-07T01:29:23.038Z,11.55
2016-09-07T01:30:25.114Z,11.4
2016-09-07T01:31:25.234Z,11.48
2016-09-07T01:32:24.391Z,11.55
2016-09-07T01:33:23.382Z,11.66
2016-09-07T01:34:24.573Z,11.45
2016-09-07T01:35:23.198Z,11.6
2016-09-07T01:36:22.862Z,11.57
2016-09-07T01:37:23.449Z,11.45
2016-09-07T01:38:23.237Z,11.43
2016-09-07T01:39:23.288Z,11.37
2016-09-07T01:40:23.190Z,11.19
2016-09-07T01:41:25.533Z,11.19
2016-09-07T01:42:23.818Z,11.27
2016-09-07T01:43:24.380Z,11.27
2016-09-07T01:44:24.460Z,11.3
2016-09-07T01:45:25.293Z,11.26
2016-09-07T01:46:24.232Z,11.35
2016-09-07T01:47:25.568Z,11.23
2016-09-07T01:48:22.852Z,11.44
2016-09-07T01:49:24.795Z,11.4
2016-09-07T01:50:26.431Z,11.37
2016-09-07T01:51:23.567Z,11.27
2016-09-07T01:52:24.911Z,11.07
2016-09-07T01:53:23.395Z,10.75
2016-09-07T01:54:24.477Z,10.78
2016-09-07T01:55:24.126Z,10.79
2016-09-07T01:56:23.514Z,10.99
2016-09-07T01:57:23.485Z,10.99
2016-09-07T01:58:24.813Z,11.02
2016-09-07T01:59:24.655Z,11.08
2016-09-07T02:00:25.080Z,11
2016-09-07T02:01:25.462Z,11.02
2016-09-07T02:02:25.136Z,11.07
2016-09-07T02:03:24.260Z,10.99
2016-09-07T02:04:23.905Z,10.84
2016-09-07T02:05:23.546Z,10.61
2016-09-07T02:06:24.040Z,10.51
2016-09-07T02:07:24.904Z,10.6
2016-09-07T02:08:24.613Z,10.76
2016-09-07T02:09:24.498Z,10.82
2016-09-07T02:10:24.283Z,10.82
2016-09-07T02:11:23.610Z,10.75
2016-09-07T02:12:25.870Z,10.79
2016-09-07T02:13:24.567Z,10.64
2016-09-07T02:14:25.339Z,10.79
2016-09-07T02:15:24.807Z,10.94
2016-09-07T02:16:24.180Z,10.87
2016-09-07T02:17:23.246Z,10.87
2016-09-07T02:18:26.334Z,10.96
2016-09-07T02:19:24.077Z,10.92
2016-09-07T02:20:25.311Z,10.59
2016-09-07T02:21:24.656Z,10.48
2016-09-07T02:22:24.995Z,10.56
2016-09-07T02:23:24.652Z,10.79
2016-09-07T02:24:25.346Z,10.86
2016-09-07T02:25:25.616Z,10.96
2016-09-07T02:26:25.015Z,10.81
2016-09-07T02:27:24.063Z,10.82
2016-09-07T02:28:24.588Z,10.71
2016-09-07T02:29:24.416Z,10.76
2016-09-07T02:30:25.152Z,11.02
2016-09-07T02:31:24.794Z,10.9
2016-09-07T02:32:26.081Z,10.94
2016-09-07T02:33:24.497Z,10.81
2016-09-07T02:34:24.152Z,10.76
2016-09-07T02:35:25.495Z,10.82
2016-09-07T02:36:25.144Z,10.87
2016-09-07T02:37:24.622Z,10.89
2016-09-07T02:38:24.788Z,10.97
2016-09-07T02:39:25.393Z,10.81
2016-09-07T02:40:24.551Z,10.93
2016-09-07T02:41:26.761Z,10.86
2016-09-07T02:42:24.243Z,10.9
2016-09-07T02:43:25.474Z,10.87
2016-09-07T02:44:24.164Z,10.89
2016-09-07T02:45:25.383Z,10.79
2016-09-07T02:46:25.109Z,10.78
2016-09-07T02:47:24.924Z,10.79
2016-09-07T02:48:25.535Z,10.82
2016-09-07T02:49:25.116Z,10.78
2016-09-07T02:50:24.053Z,10.79
2016-09-07T02:51:25.683Z,10.84
2016-09-07T02:52:25.024Z,10.78
2016-09-07T02:53:26.213Z,10.79
2016-09-07T02:54:26.230Z,10.92
2016-09-07T02:55:24.583Z,10.89
2016-09-07T02:56:25.253Z,10.97
2016-09-07T02:57:24.483Z,10.67
2016-09-07T02:58:24.299Z,10.54
2016-09-07T02:59:26.352Z,10.56
2016-09-07T03:00:26.265Z,10.17
2016-09-07T03:01:26.986Z,10.05
2016-09-07T03:02:25.401Z,10.07
2016-09-07T03:03:25.658Z,10.25
2016-09-07T03:04:24.304Z,10.26
2016-09-07T03:05:26.755Z,10.37
2016-09-07T03:06:25.445Z,10.42
2016-09-07T03:07:25.294Z,10.54
2016-09-07T03:08:24.936Z,10.54
2016-09-07T03:09:28.116Z,10.54
2016-09-07T03:10:25.978Z,10.53
2016-09-07T03:11:25.140Z,10.53
2016-09-07T03:12:26.915Z,10.49
2016-09-07T03:13:29.741Z,10.37
2016-09-07T03:14:26.911Z,10.41
2016-09-07T03:15:25.478Z,10.48
2016-09-07T03:16:25.437Z,10.44
2016-09-07T03:17:25.493Z,10.53
2016-09-07T03:18:25.547Z,10.53
2016-09-07T03:19:28.484Z,10.49
2016-09-07T03:20:25.388Z,10.49
2016-09-07T03:21:27.111Z,10.44
2016-09-07T03:22:26.485Z,10.46
2016-09-07T03:23:26.834Z,10.53
2016-09-07T03:24:25.837Z,10.56
2016-09-07T03:25:25.841Z,10.57
2016-09-07T03:26:24.942Z,10.54
2016-09-07T03:27:25.727Z,10.44
2016-09-07T03:28:25.436Z,10.48
2016-09-07T03:29:25.956Z,10.49
2016-09-07T03:30:25.837Z,10.59
2016-09-07T03:31:24.385Z,10.49
2016-09-07T03:32:26.117Z,10.46
2016-09-07T03:33:26.325Z,10.48
2016-09-07T03:34:25.989Z,10.53
2016-09-07T03:35:26.834Z,10.35
2016-09-07T03:36:24.861Z,10.33
2016-09-07T03:37:26.532Z,10.05
2016-09-07T03:38:25.541Z,9.92
2016-09-07T03:39:25.002Z,9.79
2016-09-07T03:40:24.581Z,9.92
2016-09-07T03:41:25.385Z,9.82
2016-09-07T03:42:25.111Z,9.74
2016-09-07T03:43:26.879Z,9.8
2016-09-07T03:44:26.175Z,9.97
2016-09-07T03:45:24.925Z,10.19
2016-09-07T03:46:25.715Z,10.19
2016-09-07T03:47:26.257Z,10.23
2016-09-07T03:48:25.324Z,10.3
2016-09-07T03:49:26.274Z,10.37
2016-09-07T03:50:24.735Z,10.34
2016-09-07T03:51:25.103Z,10.25
2016-09-07T03:52:25.150Z,10.23
2016-09-07T03:53:25.403Z,10.33
2016-09-07T03:54:27.145Z,10.17
2016-09-07T03:55:25.822Z,10.09
2016-09-07T03:56:26.379Z,10.22
2016-09-07T03:57:25.566Z,10.3
2016-09-07T03:58:25.539Z,10.3
2016-09-07T03:59:26.952Z,10.28
2016-09-07T04:00:25.534Z,10.2
2016-09-07T04:01:25.800Z,10.07
2016-09-07T04:02:25.609Z,9.99
2016-09-07T04:03:25.522Z,9.98
2016-09-07T04:04:25.814Z,10.07
2016-09-07T04:05:26.120Z,9.95
2016-09-07T04:06:25.283Z,10.04
2016-09-07T04:07:25.727Z,10.1
2016-09-07T04:08:24.552Z,10.25
2016-09-07T04:09:24.758Z,10.35
2016-09-07T04:10:25.925Z,10.35
2016-09-07T04:11:25.645Z,10.34
2016-09-07T04:12:26.498Z,10.13
2016-09-07T04:13:25.860Z,9.94
2016-09-07T04:14:25.807Z,10.1
2016-09-07T04:15:25.890Z,10.17
2016-09-07T04:16:26.167Z,10.22
2016-09-07T04:17:26.471Z,10.23
2016-09-07T04:18:26.770Z,10.07
2016-09-07T04:19:26.233Z,10.17
2016-09-07T04:20:25.824Z,10.33
2016-09-07T04:21:26.350Z,10.22
2016-09-07T04:22:25.767Z,10.19
2016-09-07T04:23:27.303Z,10.23
2016-09-07T04:24:27.298Z,10.3
2016-09-07T04:25:25.721Z,10.28
2016-09-07T04:26:26.598Z,10.34
2016-09-07T04:27:25.916Z,10.35
2016-09-07T04:28:25.919Z,10.26
2016-09-07T04:29:25.569Z,10.23
2016-09-07T04:30:28.065Z,10.07
2016-09-07T04:31:25.436Z,9.84
2016-09-07T04:32:27.273Z,9.87
2016-09-07T04:33:26.947Z,9.97
2016-09-07T04:34:26.194Z,9.98
2016-09-07T04:35:25.557Z,10.16
2016-09-07T04:36:26.258Z,10.25
2016-09-07T04:37:26.652Z,10.31
2016-09-07T04:38:26.634Z,10.33
2016-09-07T04:39:28.107Z,10.26
2016-09-07T04:40:27.976Z,10.19
2016-09-07T04:41:27.727Z,10.17
2016-09-07T04:42:26.300Z,9.99
2016-09-07T04:43:28.081Z,10.01
2016-09-07T04:44:26.173Z,9.87
2016-09-07T04:45:28.117Z,9.82
2016-09-07T04:46:26.128Z,9.99
2016-09-07T04:47:26.660Z,10.22
2016-09-07T04:48:26.183Z,10.2
2016-09-07T04:49:26.807Z,10.22
2016-09-07T04:50:26.201Z,10.26
2016-09-07T04:51:27.283Z,10.26
2016-09-07T04:52:27.474Z,10.25
2016-09-07T04:53:26.461Z,10.25
2016-09-07T04:54:28.235Z,10.16
2016-09-07T04:55:26.805Z,10.01
2016-09-07T04:56:27.946Z,10.01
2016-09-07T04:57:26.430Z,9.95
2016-09-07T04:58:27.430Z,10.07
2016-09-07T04:59:26.012Z,10.04
2016-09-07T05:00:27.138Z,10.12
2016-09-07T05:01:26.445Z,10.23
2016-09-07T05:02:26.509Z,10.35
2016-09-07T05:03:27.441Z,10.4
2016-09-07T05:04:26.741Z,10.34
2016-09-07T05:05:27.407Z,10.37
2016-09-07T05:06:27.942Z,10.46
2016-09-07T05:07:27.602Z,10.4
2016-09-07T05:08:26.661Z,10.53
2016-09-07T05:09:27.717Z,10.42
2016-09-07T05:10:27.028Z,10.25
2016-09-07T05:11:27.432Z,10.12
2016-09-07T05:12:26.090Z,10.15
2016-09-07T05:13:28.847Z,10.2
2016-09-07T05:14:26.372Z,10.2
2016-09-07T05:15:27.887Z,10.17
2016-09-07T05:16:27.223Z,9.98
2016-09-07T05:17:28.192Z,9.97
2016-09-07T05:18:27.391Z,10.04
2016-09-07T05:19:27.130Z,10.23
2016-09-07T05:20:27.776Z,10.3
2016-09-07T05:21:27.185Z,10.22
2016-09-07T05:22:26.474Z,10.02
2016-09-07T05:23:27.134Z,9.98
2016-09-07T05:24:27.925Z,9.94
2016-09-07T05:25:26.905Z,9.94
2016-09-07T05:26:27.590Z,9.94
2016-09-07T05:27:27.683Z,9.95
2016-09-07T05:28:26.626Z,9.99
2016-09-07T05:29:27.083Z,10.09
2016-09-07T05:30:28.344Z,10.26
2016-09-07T05:31:27.438Z,10.37
2016-09-07T05:32:27.829Z,10.3
2016-09-07T05:33:27.930Z,10.35
2016-09-07T05:34:26.651Z,10.31
2016-09-07T05:35:27.219Z,10.2
2016-09-07T05:36:28.449Z,10.35
2016-09-07T05:37:28.348Z,10.28
2016-09-07T05:38:27.138Z,10.31
2016-09-07T05:39:27.216Z,10.35
2016-09-07T05:40:28.117Z,10.44
2016-09-07T05:41:27.030Z,10.53
2016-09-07T05:42:26.770Z,10.69
2016-09-07T05:43:27.431Z,10.75
2016-09-07T05:44:27.332Z,10.68
2016-09-07T05:45:27.065Z,10.68
2016-09-07T05:46:27.308Z,10.76
2016-09-07T05:47:27.876Z,10.75
2016-09-07T05:48:26.987Z,10.68
2016-09-07T05:49:26.909Z,10.68
2016-09-07T05:50:27.838Z,10.75
2016-09-07T05:51:27.436Z,10.78
2016-09-07T05:52:27.656Z,10.89
2016-09-07T05:53:27.263Z,11.04
2016-09-07T05:54:27.211Z,11.22
2016-09-07T05:55:27.811Z,11.33
2016-09-07T05:56:27.926Z,11.25
2016-09-07T05:57:28.384Z,11.18
2016-09-07T05:58:27.993Z,11.05
2016-09-07T05:59:27.174Z,11.18
2016-09-07T06:00:28.061Z,11.19
2016-09-07T06:01:28.507Z,11.3
2016-09-07T06:02:29.193Z,11.19
2016-09-07T06:03:28.352Z,11.32
2016-09-07T06:04:27.725Z,11.26
2016-09-07T06:05:27.979Z,11
2016-09-07T06:06:27.814Z,11.08
2016-09-07T06:07:27.844Z,11.3
2016-09-07T06:08:27.774Z,11.23
2016-09-07T06:09:27.946Z,11.02
2016-09-07T06:10:28.864Z,10.89
2016-09-07T06:11:27.449Z,11.11
2016-09-07T06:12:27.403Z,11.07
2016-09-07T06:13:27.874Z,11.19
2016-09-07T06:14:28.113Z,11.23
2016-09-07T06:15:27.526Z,11
2016-09-07T06:16:27.944Z,11.14
2016-09-07T06:17:28.739Z,11.23
2016-09-07T06:18:29.831Z,11.22
2016-09-07T06:19:27.754Z,11.22
2016-09-07T06:20:29.241Z,11.29
2016-09-07T06:21:27.716Z,11.3
2016-09-07T06:22:28.058Z,11.45
2016-09-07T06:23:28.523Z,11.43
2016-09-07T06:24:27.751Z,11.44
2016-09-07T06:25:27.851Z,11.62
2016-09-07T06:26:28.154Z,11.44
2016-09-07T06:27:27.536Z,11.4
2016-09-07T06:28:29.767Z,11.43
2016-09-07T06:29:27.682Z,11.65
2016-09-07T06:30:27.828Z,11.75
2016-09-07T06:31:29.813Z,11.88
2016-09-07T06:32:28.568Z,11.88
2016-09-07T06:33:28.418Z,11.97
2016-09-07T06:34:28.339Z,12.02
2016-09-07T06:35:29.702Z,12.15
2016-09-07T06:36:28.179Z,12.22
2016-09-07T06:37:28.126Z,12.24
2016-09-07T06:38:28.464Z,12.09
2016-09-07T06:39:29.263Z,12.24
2016-09-07T06:40:28.439Z,12.35
2016-09-07T06:41:28.466Z,12.18
2016-09-07T06:42:30.074Z,12.07
2016-09-07T06:43:28.407Z,11.99
2016-09-07T06:44:28.124Z,11.99
2016-09-07T06:45:28.381Z,11.99
2016-09-07T06:46:28.721Z,11.9
2016-09-07T06:47:29.552Z,11.81
2016-09-07T06:48:28.244Z,11.72
2016-09-07T06:49:29.564Z,11.8
2016-09-07T06:50:28.593Z,11.99
2016-09-07T06:51:28.968Z,11.99
2016-09-07T06:52:28.581Z,12.24
2016-09-07T06:53:30.067Z,12.22
2016-09-07T06:54:28.924Z,12.12
2016-09-07T06:55:29.845Z,12.24
2016-09-07T06:56:29.648Z,12.36
2016-09-07T06:57:29.723Z,12.37
2016-09-07T06:58:28.985Z,12.4
2016-09-07T06:59:29.509Z,12.53
2016-09-07T07:00:29.067Z,12.46
2016-09-07T07:01:29.300Z,12.39
2016-09-07T07:02:29.154Z,12.37
2016-09-07T07:03:29.164Z,12.24
2016-09-07T07:04:28.275Z,12.31
2016-09-07T07:05:30.179Z,12.35
2016-09-07T07:06:29.350Z,12.25
2016-09-07T07:07:28.739Z,12.25
2016-09-07T07:08:29.543Z,12.46
2016-09-07T07:09:29.629Z,12.62
2016-09-07T07:10:29.291Z,12.73
2016-09-07T07:11:29.402Z,12.86
2016-09-07T07:12:30.373Z,12.94
2016-09-07T07:13:28.786Z,12.68
2016-09-07T07:14:28.581Z,12.79
2016-09-07T07:15:30.115Z,12.87
2016-09-07T07:16:29.733Z,12.62
2016-09-07T07:17:29.299Z,12.55
2016-09-07T07:18:30.434Z,12.53
2016-09-07T07:19:30.249Z,12.32
2016-09-07T07:20:29.381Z,12.55
2016-09-07T07:21:28.401Z,12.55
2016-09-07T07:22:29.632Z,12.57
2016-09-07T07:23:30.324Z,12.62
2016-09-07T07:24:28.323Z,12.75
2016-09-07T07:25:29.273Z,12.83
2016-09-07T07:26:29.099Z,12.95
2016-09-07T07:27:29.722Z,13
2016-09-07T07:28:30.481Z,13.16
2016-09-07T07:29:31.094Z,13.3
2016-09-07T07:30:30.098Z,13.42
2016-09-07T07:31:30.464Z,13.5
2016-09-07T07:32:28.718Z,13.42
2016-09-07T07:33:29.356Z,13.04
2016-09-07T07:34:29.572Z,13.13
2016-09-07T07:35:30.454Z,13.35
2016-09-07T07:36:29.421Z,13.56
2016-09-07T07:37:30.880Z,13.65
2016-09-07T07:38:30.446Z,13.47
2016-09-07T07:39:29.753Z,13.49
2016-09-07T07:40:31.434Z,13.67
2016-09-07T07:41:29.760Z,13.74
2016-09-07T07:42:30.066Z,13.87
2016-09-07T07:43:31.654Z,14.04
2016-09-07T07:44:30.084Z,14
2016-09-07T07:45:30.563Z,13.9
2016-09-07T07:46:30.779Z,14.23
2016-09-07T07:47:29.518Z,13.95
2016-09-07T07:48:30.368Z,13.89
2016-09-07T07:49:29.928Z,13.99
2016-09-07T07:50:31.587Z,14.07
2016-09-07T07:51:30.441Z,14.14
2016-09-07T07:52:30.473Z,14
2016-09-07T07:53:30.229Z,13.89
2016-09-07T07:54:30.447Z,13.74
2016-09-07T07:55:31.338Z,13.71
2016-09-07T07:56:29.880Z,13.71
2016-09-07T07:57:32.058Z,14.03
2016-09-07T07:58:31.097Z,14.26
2016-09-07T07:59:30.499Z,14.58
2016-09-07T08:00:30.514Z,14.48
2016-09-07T08:01:30.111Z,14.45
2016-09-07T08:02:30.521Z,14.22
2016-09-07T08:03:30.428Z,14.15
2016-09-07T08:04:30.791Z,14.48
2016-09-07T08:05:31.382Z,14.78
2016-09-07T08:06:32.080Z,14.96
2016-09-07T08:07:30.334Z,15.06
2016-09-07T08:08:31.512Z,15.03
2016-09-07T08:09:31.248Z,15.02
2016-09-07T08:10:32.158Z,15.22
2016-09-07T08:11:32.534Z,15.37
2016-09-07T08:12:31.107Z,15.59
2016-09-07T08:13:30.309Z,15.88
2016-09-07T08:14:31.243Z,16.01
2016-09-07T08:15:31.216Z,16.33
2016-09-07T08:16:30.829Z,16.35
2016-09-07T08:17:31.673Z,15.97
2016-09-07T08:18:31.677Z,16.69
2016-09-07T08:19:30.259Z,16.84
2016-09-07T08:20:32.247Z,16.47
2016-09-07T08:21:31.625Z,16.57
2016-09-07T08:22:31.393Z,16.72
2016-09-07T08:23:31.311Z,16.65
2016-09-07T08:24:30.578Z,16.9
2016-09-07T08:25:31.320Z,16.71
2016-09-07T08:26:31.246Z,17.06
2016-09-07T08:27:30.676Z,17.09
2016-09-07T08:28:30.859Z,17.14
2016-09-07T08:29:30.382Z,17.38
2016-09-07T08:30:30.598Z,18.25
2016-09-07T08:31:30.662Z,18.8
2016-09-07T08:32:32.506Z,18.74
2016-09-07T08:33:31.654Z,18.29
2016-09-07T08:34:31.853Z,17.82
2016-09-07T08:35:31.622Z,17.97
2016-09-07T08:36:30.671Z,18.11
2016-09-07T08:37:31.810Z,18.6
2016-09-07T08:38:31.513Z,18.37
2016-09-07T08:39:31.357Z,18.95
2016-09-07T08:40:31.379Z,19.84
2016-09-07T08:41:32.123Z,19.62
2016-09-07T08:42:32.066Z,20.39
2016-09-07T08:43:32.698Z,20.66
2016-09-07T08:44:32.318Z,20.84
2016-09-07T08:45:33.081Z,20.82
2016-09-07T08:46:31.294Z,20.28
2016-09-07T08:47:32.130Z,20.13
2016-09-07T08:48:31.574Z,19.64
2016-09-07T08:49:31.952Z,19.15
2016-09-07T08:50:31.344Z,18.71
2016-09-07T08:51:32.871Z,18.86
2016-09-07T08:52:30.822Z,19.99
2016-09-07T08:53:30.930Z,20.02
2016-09-07T08:54:31.655Z,20.6
2016-09-07T08:55:32.633Z,21.37
2016-09-07T08:56:31.226Z,20.84
2016-09-07T08:57:31.814Z,19.85
2016-09-07T08:58:32.635Z,19.55
2016-09-07T08:59:31.837Z,20.14
2016-09-07T09:00:32.246Z,20.4
2016-09-07T09:01:31.516Z,20.99
2016-09-07T09:02:31.757Z,21.61
2016-09-07T09:03:31.664Z,22.5
2016-09-07T09:04:32.220Z,22.76
2016-09-07T09:05:31.988Z,22.45
2016-09-07T09:06:32.489Z,22.65
2016-09-07T09:07:32.296Z,22.83
2016-09-07T09:08:31.459Z,22.73
2016-09-07T09:09:32.115Z,22.78
2016-09-07T09:10:33.757Z,22.84
2016-09-07T09:11:32.140Z,21.91
2016-09-07T09:12:32.378Z,22.7
2016-09-07T09:13:31.873Z,22.94
2016-09-07T09:14:31.492Z,22.99
2016-09-07T09:15:31.894Z,23.44
2016-09-07T09:16:32.395Z,23.51
2016-09-07T09:17:33.251Z,23.36
2016-09-07T09:18:31.978Z,22.93
2016-09-07T09:19:32.247Z,23.03
2016-09-07T09:20:32.443Z,23.34
2016-09-07T09:21:33.001Z,23.76
2016-09-07T09:22:31.737Z,23.32
2016-09-07T09:23:32.007Z,23.55
2016-09-07T09:24:32.102Z,22.99
2016-09-07T09:25:32.401Z,23.13
2016-09-07T09:26:32.127Z,22.38
2016-09-07T09:27:32.674Z,23.5
2016-09-07T09:28:31.993Z,24.23
2016-09-07T09:29:33.518Z,23.56
2016-09-07T09:30:33.229Z,23.92
2016-09-07T09:31:33.508Z,24.39
2016-09-07T09:32:33.587Z,24.7
2016-09-07T09:33:32.326Z,24.43
2016-09-07T09:34:32.503Z,24.69
2016-09-07T09:35:32.671Z,24.57
2016-09-07T09:36:32.834Z,25.03
2016-09-07T09:37:34.426Z,23.92
2016-09-07T09:38:32.581Z,22.83
2016-09-07T09:39:32.513Z,24.32
2016-09-07T09:40:32.568Z,24.8
2016-09-07T09:41:32.508Z,25.1
2016-09-07T09:42:33.619Z,25.65
2016-09-07T09:43:33.921Z,25.93
2016-09-07T09:44:33.893Z,25.53
2016-09-07T09:45:32.815Z,25.4
2016-09-07T09:46:32.419Z,25.72
2016-09-07T09:47:33.147Z,25.58
2016-09-07T09:48:35.132Z,25.8
2016-09-07T09:49:33.201Z,26.03
2016-09-07T09:50:32.555Z,25.72
2016-09-07T09:51:33.089Z,24.7
2016-09-07T09:52:33.714Z,25.58
2016-09-07T09:53:35.326Z,26.16
2016-09-07T09:54:34.483Z,25.95
2016-09-07T09:55:34.265Z,24.53
2016-09-07T09:56:32.712Z,25.18
2016-09-07T09:57:33.845Z,24.99
2016-09-07T09:58:33.512Z,23.91
2016-09-07T09:59:34.220Z,25.08
2016-09-07T10:00:34.374Z,24.85
2016-09-07T10:01:34.557Z,23.58
2016-09-07T10:02:35.002Z,23.41
2016-09-07T10:03:34.540Z,24.39
2016-09-07T10:04:34.589Z,24.57
2016-09-07T10:05:33.945Z,24.89
2016-09-07T10:06:34.658Z,24.58
2016-09-07T10:07:33.585Z,24.55
2016-09-07T10:08:34.335Z,25.29
2016-09-07T10:09:33.872Z,25.16
2016-09-07T10:10:34.401Z,25.5
2016-09-07T10:11:34.592Z,24.89
2016-09-07T10:12:33.653Z,25.7
2016-09-07T10:13:35.224Z,25.21
2016-09-07T10:14:34.201Z,24.57
2016-09-07T10:15:33.739Z,25.46
2016-09-07T10:16:34.407Z,25.84
2016-09-07T10:17:33.912Z,26.45
2016-09-07T10:18:35.428Z,26.71
2016-09-07T10:19:33.744Z,26.73
2016-09-07T10:20:34.387Z,26.89
2016-09-07T10:21:35.314Z,27.22
2016-09-07T10:22:35.175Z,27.35
2016-09-07T10:23:35.752Z,26.41
2016-09-07T10:24:33.510Z,26.68
2016-09-07T10:25:34.313Z,26.59
2016-09-07T10:26:34.154Z,26.22
2016-09-07T10:27:34.245Z,26.73
2016-09-07T10:28:35.128Z,27.42
2016-09-07T10:29:35.490Z,26.81
2016-09-07T10:30:35.818Z,27.35
2016-09-07T10:31:34.662Z,27.82
2016-09-07T10:32:34.986Z,28.01
2016-09-07T10:33:35.159Z,28.12
2016-09-07T10:34:35.023Z,27.63
2016-09-07T10:35:35.935Z,27.15
2016-09-07T10:36:34.814Z,26.4
2016-09-07T10:37:35.354Z,26.96
2016-09-07T10:38:35.873Z,27.18
2016-09-07T10:39:34.640Z,26.83
2016-09-07T10:40:34.785Z,26.85
2016-09-07T10:41:34.826Z,25.84
2016-09-07T10:42:35.983Z,25.11
2016-09-07T10:43:35.697Z,25.73
2016-09-07T10:44:34.488Z,26.65
2016-09-07T10:45:34.873Z,27.27
2016-09-07T10:46:34.742Z,26.45
2016-09-07T10:47:36.839Z,26.9
2016-09-07T10:48:35.305Z,27.93
2016-09-07T10:49:36.004Z,26.25
2016-09-07T10:50:34.900Z,27.71
2016-09-07T10:51:35.488Z,27.45
2016-09-07T10:52:35.578Z,27.27
2016-09-07T10:53:36.914Z,28.14
2016-09-07T10:54:36.846Z,28.14
2016-09-07T10:55:34.702Z,28.42
2016-09-07T10:56:35.021Z,28.25
2016-09-07T10:57:35.377Z,27.74
2016-09-07T10:58:34.995Z,27.77
2016-09-07T10:59:35.741Z,28.62
2016-09-07T11:00:36.825Z,28.44
2016-09-07T11:01:35.994Z,26.34
2016-09-07T11:02:36.972Z,26.75
2016-09-07T11:03:35.564Z,28
2016-09-07T11:04:34.839Z,28.04
2016-09-07T11:05:35.503Z,28.56
2016-09-07T11:06:35.994Z,26.85
2016-09-07T11:07:35.809Z,26.51
2016-09-07T11:08:35.705Z,26.66
2016-09-07T11:09:36.916Z,26.29
2016-09-07T11:10:37.906Z,26.21
2016-09-07T11:11:35.242Z,27.03
2016-09-07T11:12:35.266Z,28.12
2016-09-07T11:13:36.479Z,28.11
2016-09-07T11:14:35.903Z,28.37
2016-09-07T11:15:36.172Z,28.49
2016-09-07T11:16:35.367Z,27.74
2016-09-07T11:17:35.843Z,28.17
2016-09-07T11:18:37.391Z,27.75
2016-09-07T11:19:36.680Z,28.7
2016-09-07T11:20:36.840Z,27.75
2016-09-07T11:21:36.653Z,27.03
2016-09-07T11:22:37.526Z,25.98
2016-09-07T11:23:36.932Z,25.95
2016-09-07T11:24:35.830Z,25.8
2016-09-07T11:25:36.726Z,25.73
2016-09-07T11:26:36.989Z,25.03
2016-09-07T11:27:37.618Z,25.14
2016-09-07T11:28:37.427Z,26.89
2016-09-07T11:29:37.761Z,28.12
2016-09-07T11:30:35.670Z,28.88
2016-09-07T11:31:37.015Z,27.9
2016-09-07T11:32:36.173Z,26.22
2016-09-07T11:33:37.982Z,25.14
2016-09-07T11:34:36.195Z,25.25
2016-09-07T11:35:36.797Z,26.02
2016-09-07T11:36:37.328Z,26.62
2016-09-07T11:37:38.324Z,26
2016-09-07T11:38:37.675Z,25.63
2016-09-07T11:39:36.772Z,25.48
2016-09-07T11:40:37.287Z,25.43
2016-09-07T11:41:38.038Z,25.81
2016-09-07T11:42:36.857Z,26.4
2016-09-07T11:43:38.047Z,26.59
2016-09-07T11:44:37.181Z,26.13
2016-09-07T11:45:38.142Z,26.15
2016-09-07T11:46:37.242Z,26.7
2016-09-07T11:47:37.793Z,26.38
2016-09-07T11:48:37.277Z,25.44
2016-09-07T11:49:37.110Z,25.62
2016-09-07T11:50:37.758Z,25.43
2016-09-07T11:52:37.828Z,25.8
2016-09-07T11:53:39.081Z,26.16
2016-09-07T11:54:37.192Z,25.84
2016-09-07T11:55:37.830Z,26.62
2016-09-07T11:56:37.176Z,27.37
2016-09-07T11:57:37.572Z,26.78
2016-09-07T11:58:38.237Z,27.18
2016-09-07T11:59:37.232Z,27.39
2016-09-07T12:00:37.495Z,27.48
2016-09-07T12:01:38.260Z,28.05
2016-09-07T12:02:37.333Z,28.64
2016-09-07T12:03:37.442Z,27.49
2016-09-07T12:04:38.993Z,29.2
2016-09-07T12:05:38.264Z,28.85
2016-09-07T12:06:38.355Z,28.78
2016-09-07T12:07:37.733Z,28.63
2016-09-07T12:08:37.340Z,29.14
2016-09-07T12:09:38.711Z,27.87
2016-09-07T12:10:37.819Z,27.73
2016-09-07T12:11:37.452Z,29.31
2016-09-07T12:12:39.111Z,29.24
2016-09-07T12:13:38.813Z,29.84
2016-09-07T12:14:37.913Z,29.47
2016-09-07T12:15:38.266Z,30.39
2016-09-07T12:16:39.513Z,29.02
2016-09-07T12:17:38.066Z,28.19
2016-09-07T12:18:38.932Z,27.4
2016-09-07T12:19:37.888Z,26.81
2016-09-07T12:20:38.643Z,26.73
2016-09-07T12:21:38.983Z,26.53
2016-09-07T12:22:38.306Z,26.53
2016-09-07T12:23:39.280Z,26.26
2016-09-07T12:24:38.967Z,26.62
2016-09-07T12:25:38.166Z,27.77
2016-09-07T12:26:38.034Z,28.26
2016-09-07T12:27:38.993Z,29.23
2016-09-07T12:28:37.733Z,28.79
2016-09-07T12:29:40.596Z,28.19
2016-09-07T12:30:39.119Z,29.44
2016-09-07T12:31:39.765Z,29.45
2016-09-07T12:32:39.598Z,29.23
2016-09-07T12:33:39.136Z,29.29
2016-09-07T12:34:38.969Z,29.97
2016-09-07T12:35:40.230Z,30.72
2016-09-07T12:36:38.841Z,30.55
2016-09-07T12:37:39.715Z,29.56
2016-09-07T12:38:40.478Z,29.91
2016-09-07T12:39:39.533Z,29.94
2016-09-07T12:40:39.837Z,28.33
2016-09-07T12:41:39.050Z,27.63
2016-09-07T12:42:40.236Z,28.38
2016-09-07T12:43:40.188Z,30.37
2016-09-07T12:44:40.287Z,28.88
2016-09-07T12:45:39.580Z,28.82
2016-09-07T12:46:39.974Z,27.77
2016-09-07T12:47:39.738Z,28.37
2016-09-07T12:48:41.800Z,29.5
2016-09-07T12:49:40.734Z,30.66
2016-09-07T12:50:40.603Z,31.87
2016-09-07T12:51:38.780Z,31.42
2016-09-07T12:52:39.635Z,31.24
2016-09-07T12:53:40.362Z,31.71
2016-09-07T12:54:39.633Z,31.62
2016-09-07T12:55:39.609Z,31.27
2016-09-07T12:56:39.540Z,31.21
2016-09-07T12:57:40.741Z,31.51